sensor_id;sensor_type;location;lat;lon;timestamp;pressure;altitude;pressure_sealevel;temperature;humidity
48862;BME280;34681;49.188;-0.374;2023-03-16T00:01:36;101122.22;;;12.54;57.08
48862;BME280;34681;49.188;-0.374;2023-03-16T00:04:01;101116.28;;;12.86;56.19
48862;BME280;34681;49.188;-0.374;2023-03-16T00:06:27;101123.28;;;12.71;56.60
48862;BME280;34681;49.188;-0.374;2023-03-16T00:08:52;101116.94;;;12.70;56.87
48862;BME280;34681;49.188;-0.374;2023-03-16T00:11:23;101111.44;;;12.70;56.97
48862;BME280;34681;49.188;-0.374;2023-03-16T00:13:48;101116.53;;;12.65;57.38
48862;BME280;34681;49.188;-0.374;2023-03-16T00:16:14;101114.84;;;12.54;57.66
48862;BME280;34681;49.188;-0.374;2023-03-16T00:18:41;101111.75;;;12.67;57.43
48862;BME280;34681;49.188;-0.374;2023-03-16T00:21:07;101114.41;;;12.49;58.08
48862;BME280;34681;49.188;-0.374;2023-03-16T00:23:34;101120.28;;;12.64;58.04
48862;BME280;34681;49.188;-0.374;2023-03-16T00:26:02;101117.31;;;12.85;57.59
48862;BME280;34681;49.188;-0.374;2023-03-16T00:28:29;101114.25;;;12.88;57.48
48862;BME280;34681;49.188;-0.374;2023-03-16T00:31:02;101118.00;;;12.87;57.68
48862;BME280;34681;49.188;-0.374;2023-03-16T00:33:28;101107.94;;;13.05;57.39
48862;BME280;34681;49.188;-0.374;2023-03-16T00:35:54;101114.00;;;13.09;57.45
48862;BME280;34681;49.188;-0.374;2023-03-16T00:38:27;101102.97;;;12.91;57.96
48862;BME280;34681;49.188;-0.374;2023-03-16T00:40:53;101099.31;;;12.35;59.69
48862;BME280;34681;49.188;-0.374;2023-03-16T00:43:18;101099.31;;;12.35;60.03
48862;BME280;34681;49.188;-0.374;2023-03-16T00:45:44;101096.97;;;12.78;59.13
48862;BME280;34681;49.188;-0.374;2023-03-16T00:48:10;101091.31;;;12.79;58.99
48862;BME280;34681;49.188;-0.374;2023-03-16T00:50:36;101093.13;;;12.88;58.94
48862;BME280;34681;49.188;-0.374;2023-03-16T00:53:02;101093.34;;;12.77;59.31
48862;BME280;34681;49.188;-0.374;2023-03-16T00:55:27;101087.28;;;12.74;59.27
48862;BME280;34681;49.188;-0.374;2023-03-16T00:57:53;101079.69;;;12.30;60.40
48862;BME280;34681;49.188;-0.374;2023-03-16T01:00:19;101080.16;;;12.16;61.31
48862;BME280;34681;49.188;-0.374;2023-03-16T01:02:46;101069.34;;;12.15;61.33
48862;BME280;34681;49.188;-0.374;2023-03-16T01:05:12;101070.88;;;12.64;60.17
48862;BME280;34681;49.188;-0.374;2023-03-16T01:07:39;101064.34;;;12.75;59.43
48862;BME280;34681;49.188;-0.374;2023-03-16T01:10:07;101071.34;;;12.87;59.43
48862;BME280;34681;49.188;-0.374;2023-03-16T01:12:33;101065.22;;;12.93;59.21
48862;BME280;34681;49.188;-0.374;2023-03-16T01:14:59;101063.50;;;12.92;59.12
48862;BME280;34681;49.188;-0.374;2023-03-16T01:17:24;101052.22;;;13.13;58.85
48862;BME280;34681;49.188;-0.374;2023-03-16T01:19:50;101048.00;;;12.73;59.38
48862;BME280;34681;49.188;-0.374;2023-03-16T01:22:16;101044.66;;;12.52;60.38
48862;BME280;34681;49.188;-0.374;2023-03-16T01:24:42;101043.16;;;12.57;60.00
48862;BME280;34681;49.188;-0.374;2023-03-16T01:27:10;101032.53;;;12.17;61.06
48862;BME280;34681;49.188;-0.374;2023-03-16T01:29:37;101030.25;;;12.03;61.54
48862;BME280;34681;49.188;-0.374;2023-03-16T01:32:03;101028.31;;;11.86;61.88
48862;BME280;34681;49.188;-0.374;2023-03-16T01:34:29;101020.69;;;11.50;63.19
48862;BME280;34681;49.188;-0.374;2023-03-16T01:36:56;101028.16;;;11.48;63.20
48862;BME280;34681;49.188;-0.374;2023-03-16T01:39:21;101018.78;;;11.80;62.53
48862;BME280;34681;49.188;-0.374;2023-03-16T01:41:47;101022.06;;;11.93;61.71
48862;BME280;34681;49.188;-0.374;2023-03-16T01:44:15;101015.41;;;11.96;62.09
48862;BME280;34681;49.188;-0.374;2023-03-16T01:46:41;101020.44;;;12.10;61.61
48862;BME280;34681;49.188;-0.374;2023-03-16T01:51:59;101013.50;;;12.43;60.92
48862;BME280;34681;49.188;-0.374;2023-03-16T01:54:41;101006.78;;;12.55;60.38
48862;BME280;34681;49.188;-0.374;2023-03-16T01:59:37;101002.06;;;12.93;59.49
48862;BME280;34681;49.188;-0.374;2023-03-16T02:02:05;101001.91;;;12.94;59.35
48862;BME280;34681;49.188;-0.374;2023-03-16T02:05:00;101002.47;;;13.16;58.57
48862;BME280;34681;49.188;-0.374;2023-03-16T02:07:27;101001.09;;;12.67;59.74
48862;BME280;34681;49.188;-0.374;2023-03-16T02:09:59;100996.59;;;12.65;59.77
48862;BME280;34681;49.188;-0.374;2023-03-16T02:12:27;100980.53;;;12.71;59.72
48862;BME280;34681;49.188;-0.374;2023-03-16T02:14:53;100986.56;;;12.29;60.75
48862;BME280;34681;49.188;-0.374;2023-03-16T02:17:21;100982.81;;;11.93;61.54
48862;BME280;34681;49.188;-0.374;2023-03-16T02:22:34;100982.72;;;11.65;62.40
48862;BME280;34681;49.188;-0.374;2023-03-16T02:25:00;100985.88;;;11.70;62.53
48862;BME280;34681;49.188;-0.374;2023-03-16T02:30:07;100962.06;;;12.18;60.81
48862;BME280;34681;49.188;-0.374;2023-03-16T02:32:36;100960.31;;;12.26;60.65
48862;BME280;34681;49.188;-0.374;2023-03-16T02:35:02;100950.09;;;12.19;60.44
48862;BME280;34681;49.188;-0.374;2023-03-16T02:37:29;100948.75;;;11.95;61.08
48862;BME280;34681;49.188;-0.374;2023-03-16T02:39:54;100942.66;;;11.45;62.45
48862;BME280;34681;49.188;-0.374;2023-03-16T02:42:22;100937.94;;;11.28;63.68
48862;BME280;34681;49.188;-0.374;2023-03-16T02:44:57;100931.44;;;11.38;63.28
48862;BME280;34681;49.188;-0.374;2023-03-16T02:47:35;100931.00;;;11.33;63.70
48862;BME280;34681;49.188;-0.374;2023-03-16T02:50:03;100928.38;;;11.41;63.20
48862;BME280;34681;49.188;-0.374;2023-03-16T02:52:36;100919.00;;;11.53;62.75
48862;BME280;34681;49.188;-0.374;2023-03-16T02:55:03;100926.19;;;11.54;63.09
48862;BME280;34681;49.188;-0.374;2023-03-16T02:57:29;100911.88;;;11.80;62.42
48862;BME280;34681;49.188;-0.374;2023-03-16T02:59:55;100914.16;;;11.75;62.44
48862;BME280;34681;49.188;-0.374;2023-03-16T03:02:21;100909.91;;;11.53;63.12
48862;BME280;34681;49.188;-0.374;2023-03-16T03:04:46;100909.41;;;11.20;63.94
48862;BME280;34681;49.188;-0.374;2023-03-16T03:07:12;100909.84;;;11.25;64.05
48862;BME280;34681;49.188;-0.374;2023-03-16T03:09:39;100906.84;;;11.00;64.94
48862;BME280;34681;49.188;-0.374;2023-03-16T03:12:08;100901.94;;;11.03;64.86
48862;BME280;34681;49.188;-0.374;2023-03-16T03:14:34;100908.13;;;11.05;64.91
48862;BME280;34681;49.188;-0.374;2023-03-16T03:17:03;100907.97;;;11.16;64.54
48862;BME280;34681;49.188;-0.374;2023-03-16T03:19:28;100903.84;;;11.49;63.94
48862;BME280;34681;49.188;-0.374;2023-03-16T03:21:53;100908.53;;;11.86;62.79
48862;BME280;34681;49.188;-0.374;2023-03-16T03:24:22;100901.66;;;11.63;63.24
48862;BME280;34681;49.188;-0.374;2023-03-16T03:26:47;100905.94;;;11.85;63.04
48862;BME280;34681;49.188;-0.374;2023-03-16T03:29:12;100909.06;;;11.90;63.03
48862;BME280;34681;49.188;-0.374;2023-03-16T03:31:38;100900.03;;;12.07;62.34
48862;BME280;34681;49.188;-0.374;2023-03-16T03:34:03;100907.81;;;11.74;63.35
48862;BME280;34681;49.188;-0.374;2023-03-16T03:36:31;100908.59;;;11.67;63.71
48862;BME280;34681;49.188;-0.374;2023-03-16T03:38:56;100915.34;;;12.09;62.57
48862;BME280;34681;49.188;-0.374;2023-03-16T03:41:21;100905.63;;;11.78;63.26
48862;BME280;34681;49.188;-0.374;2023-03-16T03:43:47;100903.41;;;12.01;62.97
48862;BME280;34681;49.188;-0.374;2023-03-16T03:46:12;100909.97;;;12.08;62.54
48862;BME280;34681;49.188;-0.374;2023-03-16T03:48:37;100909.09;;;12.17;62.76
48862;BME280;34681;49.188;-0.374;2023-03-16T03:51:03;100912.69;;;12.63;61.38
48862;BME280;34681;49.188;-0.374;2023-03-16T03:53:29;100901.94;;;12.70;61.13
48862;BME280;34681;49.188;-0.374;2023-03-16T03:55:55;100905.44;;;12.44;61.67
48862;BME280;34681;49.188;-0.374;2023-03-16T03:58:20;100899.59;;;12.12;63.02
48862;BME280;34681;49.188;-0.374;2023-03-16T04:00:45;100895.28;;;12.09;63.48
48862;BME280;34681;49.188;-0.374;2023-03-16T04:03:11;100890.13;;;12.24;62.90
48862;BME280;34681;49.188;-0.374;2023-03-16T04:05:36;100888.03;;;12.35;62.74
48862;BME280;34681;49.188;-0.374;2023-03-16T04:08:01;100879.88;;;11.98;64.04
48862;BME280;34681;49.188;-0.374;2023-03-16T04:10:28;100884.06;;;11.56;65.28
48862;BME280;34681;49.188;-0.374;2023-03-16T04:12:58;100873.22;;;11.27;66.54
48862;BME280;34681;49.188;-0.374;2023-03-16T04:15:24;100869.38;;;11.00;67.65
48862;BME280;34681;49.188;-0.374;2023-03-16T04:17:50;100859.50;;;11.36;66.95
48862;BME280;34681;49.188;-0.374;2023-03-16T04:20:17;100873.03;;;11.85;65.59
48862;BME280;34681;49.188;-0.374;2023-03-16T04:22:45;100859.88;;;11.51;66.52
48862;BME280;34681;49.188;-0.374;2023-03-16T04:25:12;100856.66;;;11.18;67.77
48862;BME280;34681;49.188;-0.374;2023-03-16T04:27:39;100862.94;;;11.38;67.18
48862;BME280;34681;49.188;-0.374;2023-03-16T04:30:07;100858.44;;;11.47;67.21
48862;BME280;34681;49.188;-0.374;2023-03-16T04:32:33;100864.91;;;11.56;67.11
48862;BME280;34681;49.188;-0.374;2023-03-16T04:34:58;100857.50;;;12.03;65.63
48862;BME280;34681;49.188;-0.374;2023-03-16T04:37:24;100863.94;;;11.74;66.24
48862;BME280;34681;49.188;-0.374;2023-03-16T04:39:49;100866.06;;;11.90;65.83
48862;BME280;34681;49.188;-0.374;2023-03-16T04:42:15;100863.06;;;12.11;65.41
48862;BME280;34681;49.188;-0.374;2023-03-16T04:44:40;100857.25;;;11.96;65.41
48862;BME280;34681;49.188;-0.374;2023-03-16T04:47:08;100856.09;;;11.62;66.38
48862;BME280;34681;49.188;-0.374;2023-03-16T04:49:33;100861.44;;;11.53;66.77
48862;BME280;34681;49.188;-0.374;2023-03-16T04:51:59;100861.28;;;11.55;66.65
48862;BME280;34681;49.188;-0.374;2023-03-16T04:54:25;100855.53;;;11.48;66.76
48862;BME280;34681;49.188;-0.374;2023-03-16T04:56:50;100861.19;;;11.47;67.06
48862;BME280;34681;49.188;-0.374;2023-03-16T04:59:17;100857.28;;;11.03;67.92
48862;BME280;34681;49.188;-0.374;2023-03-16T05:01:43;100849.03;;;11.12;67.75
48862;BME280;34681;49.188;-0.374;2023-03-16T05:04:08;100861.09;;;11.29;67.48
48862;BME280;34681;49.188;-0.374;2023-03-16T05:06:33;100848.09;;;11.31;67.26
48862;BME280;34681;49.188;-0.374;2023-03-16T05:08:59;100855.38;;;11.50;66.93
48862;BME280;34681;49.188;-0.374;2023-03-16T05:11:25;100846.19;;;11.78;65.89
48862;BME280;34681;49.188;-0.374;2023-03-16T05:13:50;100844.66;;;11.29;66.91
48862;BME280;34681;49.188;-0.374;2023-03-16T05:16:16;100846.28;;;11.12;67.91
48862;BME280;34681;49.188;-0.374;2023-03-16T05:18:41;100843.03;;;10.89;68.65
48862;BME280;34681;49.188;-0.374;2023-03-16T05:21:07;100840.53;;;11.06;68.69
48862;BME280;34681;49.188;-0.374;2023-03-16T05:23:32;100848.72;;;11.15;68.14
48862;BME280;34681;49.188;-0.374;2023-03-16T05:25:57;100843.66;;;11.30;67.30
48862;BME280;34681;49.188;-0.374;2023-03-16T05:28:26;100837.69;;;11.44;67.15
48862;BME280;34681;49.188;-0.374;2023-03-16T05:30:52;100837.81;;;11.52;66.39
48862;BME280;34681;49.188;-0.374;2023-03-16T05:33:18;100833.78;;;11.10;67.45
48862;BME280;34681;49.188;-0.374;2023-03-16T05:35:43;100836.19;;;11.22;66.97
48862;BME280;34681;49.188;-0.374;2023-03-16T05:38:08;100831.66;;;10.94;67.85
48862;BME280;34681;49.188;-0.374;2023-03-16T05:40:37;100818.41;;;10.70;68.56
48862;BME280;34681;49.188;-0.374;2023-03-16T05:43:03;100817.09;;;10.74;68.67
48862;BME280;34681;49.188;-0.374;2023-03-16T05:45:29;100811.47;;;10.76;68.65
48862;BME280;34681;49.188;-0.374;2023-03-16T05:47:54;100818.44;;;10.60;68.94
48862;BME280;34681;49.188;-0.374;2023-03-16T05:50:20;100816.94;;;10.95;68.29
48862;BME280;34681;49.188;-0.374;2023-03-16T05:52:46;100818.22;;;11.10;67.43
48862;BME280;34681;49.188;-0.374;2023-03-16T05:55:14;100817.31;;;11.19;67.08
48862;BME280;34681;49.188;-0.374;2023-03-16T05:57:40;100816.31;;;11.48;66.39
48862;BME280;34681;49.188;-0.374;2023-03-16T06:00:08;100820.31;;;11.16;66.67
48862;BME280;34681;49.188;-0.374;2023-03-16T06:02:45;100813.22;;;10.86;67.38
48862;BME280;34681;49.188;-0.374;2023-03-16T06:05:14;100808.22;;;11.19;67.19
48862;BME280;34681;49.188;-0.374;2023-03-16T06:07:40;100817.34;;;11.47;66.39
48862;BME280;34681;49.188;-0.374;2023-03-16T06:10:06;100817.53;;;11.36;66.01
48862;BME280;34681;49.188;-0.374;2023-03-16T06:12:32;100819.25;;;11.37;66.24
48862;BME280;34681;49.188;-0.374;2023-03-16T06:14:58;100822.13;;;11.45;66.08
48862;BME280;34681;49.188;-0.374;2023-03-16T06:17:25;100819.38;;;11.45;65.86
48862;BME280;34681;49.188;-0.374;2023-03-16T06:19:50;100818.38;;;11.73;65.22
48862;BME280;34681;49.188;-0.374;2023-03-16T06:22:16;100819.47;;;11.90;64.56
48862;BME280;34681;49.188;-0.374;2023-03-16T06:24:42;100821.53;;;12.06;64.08
48862;BME280;34681;49.188;-0.374;2023-03-16T06:27:08;100825.06;;;11.24;65.77
48862;BME280;34681;49.188;-0.374;2023-03-16T06:29:33;100817.00;;;11.22;66.48
48862;BME280;34681;49.188;-0.374;2023-03-16T06:31:58;100813.97;;;11.25;65.91
48862;BME280;34681;49.188;-0.374;2023-03-16T06:34:24;100818.56;;;11.25;65.68
48862;BME280;34681;49.188;-0.374;2023-03-16T06:36:49;100819.41;;;10.88;66.57
48862;BME280;34681;49.188;-0.374;2023-03-16T06:39:15;100815.84;;;10.68;67.38
48862;BME280;34681;49.188;-0.374;2023-03-16T06:41:41;100815.69;;;10.70;67.62
48862;BME280;34681;49.188;-0.374;2023-03-16T06:44:07;100801.88;;;10.62;67.71
48862;BME280;34681;49.188;-0.374;2023-03-16T06:46:33;100801.28;;;10.78;67.57
48862;BME280;34681;49.188;-0.374;2023-03-16T06:48:59;100794.00;;;11.06;66.30
48862;BME280;34681;49.188;-0.374;2023-03-16T06:51:25;100795.22;;;10.74;67.10
48862;BME280;34681;49.188;-0.374;2023-03-16T06:53:51;100805.72;;;10.88;66.68
48862;BME280;34681;49.188;-0.374;2023-03-16T06:56:16;100805.00;;;10.67;67.03
48862;BME280;34681;49.188;-0.374;2023-03-16T06:58:41;100798.06;;;10.92;67.00
48862;BME280;34681;49.188;-0.374;2023-03-16T07:01:07;100796.34;;;10.91;66.52
48862;BME280;34681;49.188;-0.374;2023-03-16T07:03:32;100791.06;;;10.70;67.30
48862;BME280;34681;49.188;-0.374;2023-03-16T07:05:58;100795.81;;;10.68;67.02
48862;BME280;34681;49.188;-0.374;2023-03-16T07:08:23;100788.63;;;11.14;66.30
48862;BME280;34681;49.188;-0.374;2023-03-16T07:10:51;100788.31;;;10.80;66.62
48862;BME280;34681;49.188;-0.374;2023-03-16T07:13:17;100783.63;;;11.00;66.14
48862;BME280;34681;49.188;-0.374;2023-03-16T07:15:42;100784.34;;;11.11;66.10
48862;BME280;34681;49.188;-0.374;2023-03-16T07:18:09;100785.41;;;11.28;65.56
48862;BME280;34681;49.188;-0.374;2023-03-16T07:20:36;100782.31;;;11.50;64.95
48862;BME280;34681;49.188;-0.374;2023-03-16T07:23:02;100771.78;;;12.01;63.87
48862;BME280;34681;49.188;-0.374;2023-03-16T07:25:29;100784.84;;;12.07;62.70
48862;BME280;34681;49.188;-0.374;2023-03-16T07:27:56;100780.38;;;12.06;62.98
48862;BME280;34681;49.188;-0.374;2023-03-16T07:30:21;100789.56;;;12.50;61.76
48862;BME280;34681;49.188;-0.374;2023-03-16T07:32:49;100782.53;;;12.91;60.24
48862;BME280;34681;49.188;-0.374;2023-03-16T07:35:15;100788.31;;;13.32;59.14
48862;BME280;34681;49.188;-0.374;2023-03-16T07:37:41;100784.22;;;12.67;60.97
48862;BME280;34681;49.188;-0.374;2023-03-16T07:40:07;100790.94;;;12.72;61.07
48862;BME280;34681;49.188;-0.374;2023-03-16T07:42:33;100786.59;;;12.44;61.28
48862;BME280;34681;49.188;-0.374;2023-03-16T07:44:59;100795.13;;;12.23;62.05
48862;BME280;34681;49.188;-0.374;2023-03-16T07:47:25;100788.53;;;12.16;62.56
48862;BME280;34681;49.188;-0.374;2023-03-16T07:49:51;100792.03;;;12.79;61.43
48862;BME280;34681;49.188;-0.374;2023-03-16T07:52:16;100790.75;;;12.30;61.81
48862;BME280;34681;49.188;-0.374;2023-03-16T07:54:42;100793.41;;;12.22;62.21
48862;BME280;34681;49.188;-0.374;2023-03-16T07:57:07;100794.56;;;12.55;61.93
48862;BME280;34681;49.188;-0.374;2023-03-16T07:59:33;100790.50;;;12.23;62.21
48862;BME280;34681;49.188;-0.374;2023-03-16T08:01:59;100793.00;;;11.99;63.19
48862;BME280;34681;49.188;-0.374;2023-03-16T08:04:24;100795.84;;;12.60;62.33
48862;BME280;34681;49.188;-0.374;2023-03-16T08:06:49;100798.84;;;12.93;60.76
48862;BME280;34681;49.188;-0.374;2023-03-16T08:09:17;100794.44;;;13.00;60.74
48862;BME280;34681;49.188;-0.374;2023-03-16T08:11:42;100800.72;;;13.18;60.72
48862;BME280;34681;49.188;-0.374;2023-03-16T08:14:07;100804.81;;;13.40;59.66
48862;BME280;34681;49.188;-0.374;2023-03-16T08:16:33;100802.06;;;13.74;59.28
48862;BME280;34681;49.188;-0.374;2023-03-16T08:18:58;100790.88;;;13.68;58.79
48862;BME280;34681;49.188;-0.374;2023-03-16T08:21:24;100789.28;;;13.57;59.19
48862;BME280;34681;49.188;-0.374;2023-03-16T08:23:49;100786.84;;;13.20;59.78
48862;BME280;34681;49.188;-0.374;2023-03-16T08:26:16;100789.44;;;13.21;60.55
48862;BME280;34681;49.188;-0.374;2023-03-16T08:28:43;100779.94;;;13.42;59.38
48862;BME280;34681;49.188;-0.374;2023-03-16T08:31:13;100775.47;;;13.41;59.71
48862;BME280;34681;49.188;-0.374;2023-03-16T08:33:41;100775.81;;;13.88;58.72
48862;BME280;34681;49.188;-0.374;2023-03-16T08:36:09;100775.03;;;14.20;57.66
48862;BME280;34681;49.188;-0.374;2023-03-16T08:38:36;100774.69;;;14.40;56.36
48862;BME280;34681;49.188;-0.374;2023-03-16T08:41:02;100765.25;;;14.26;56.52
48862;BME280;34681;49.188;-0.374;2023-03-16T08:43:29;100753.03;;;14.37;56.39
48862;BME280;34681;49.188;-0.374;2023-03-16T08:45:54;100760.19;;;14.05;56.77
48862;BME280;34681;49.188;-0.374;2023-03-16T08:48:20;100757.13;;;14.00;57.64
48862;BME280;34681;49.188;-0.374;2023-03-16T08:50:46;100748.03;;;14.16;57.28
48862;BME280;34681;49.188;-0.374;2023-03-16T08:53:13;100750.25;;;14.28;57.11
48862;BME280;34681;49.188;-0.374;2023-03-16T08:55:39;100757.53;;;14.62;56.76
48862;BME280;34681;49.188;-0.374;2023-03-16T08:58:06;100749.63;;;14.67;56.12
48862;BME280;34681;49.188;-0.374;2023-03-16T09:00:32;100743.09;;;14.68;56.47
48862;BME280;34681;49.188;-0.374;2023-03-16T09:02:58;100739.47;;;14.51;56.94
48862;BME280;34681;49.188;-0.374;2023-03-16T09:05:25;100745.66;;;14.45;56.69
48862;BME280;34681;49.188;-0.374;2023-03-16T09:07:51;100731.03;;;14.53;57.06
48862;BME280;34681;49.188;-0.374;2023-03-16T09:10:17;100735.19;;;14.49;57.15
48862;BME280;34681;49.188;-0.374;2023-03-16T09:12:44;100732.56;;;14.47;56.97
48862;BME280;34681;49.188;-0.374;2023-03-16T09:15:11;100732.91;;;14.85;56.51
48862;BME280;34681;49.188;-0.374;2023-03-16T09:17:38;100730.19;;;15.32;55.06
48862;BME280;34681;49.188;-0.374;2023-03-16T09:20:08;100736.28;;;15.11;55.27
48862;BME280;34681;49.188;-0.374;2023-03-16T09:22:35;100734.13;;;15.38;55.15
48862;BME280;34681;49.188;-0.374;2023-03-16T09:25:03;100726.19;;;15.43;54.46
48862;BME280;34681;49.188;-0.374;2023-03-16T09:27:29;100716.28;;;15.17;54.90
48862;BME280;34681;49.188;-0.374;2023-03-16T09:29:55;100714.38;;;15.26;55.06
48862;BME280;34681;49.188;-0.374;2023-03-16T09:32:20;100717.22;;;15.49;54.03
48862;BME280;34681;49.188;-0.374;2023-03-16T09:34:46;100705.97;;;15.11;54.55
48862;BME280;34681;49.188;-0.374;2023-03-16T09:37:11;100703.34;;;15.26;54.94
48862;BME280;34681;49.188;-0.374;2023-03-16T09:39:37;100706.19;;;14.94;54.96
48862;BME280;34681;49.188;-0.374;2023-03-16T09:42:31;100698.16;;;14.76;55.70
48862;BME280;34681;49.188;-0.374;2023-03-16T09:45:21;100705.28;;;15.17;55.03
48862;BME280;34681;49.188;-0.374;2023-03-16T09:47:49;100703.28;;;14.87;55.84
48862;BME280;34681;49.188;-0.374;2023-03-16T09:50:37;100688.59;;;15.03;55.36
48862;BME280;34681;49.188;-0.374;2023-03-16T09:53:27;100687.13;;;14.84;55.50
48862;BME280;34681;49.188;-0.374;2023-03-16T09:56:03;100688.38;;;14.49;56.61
48862;BME280;34681;49.188;-0.374;2023-03-16T09:58:29;100673.56;;;14.33;57.23
48862;BME280;34681;49.188;-0.374;2023-03-16T10:06:47;100675.47;;;14.33;58.20
48862;BME280;34681;49.188;-0.374;2023-03-16T10:11:53;100653.25;;;14.59;58.50
48862;BME280;34681;49.188;-0.374;2023-03-16T10:17:23;100650.47;;;14.75;58.74
48862;BME280;34681;49.188;-0.374;2023-03-16T10:19:53;100652.34;;;14.83;59.19
48862;BME280;34681;49.188;-0.374;2023-03-16T10:22:32;100643.34;;;14.89;58.41
48862;BME280;34681;49.188;-0.374;2023-03-16T10:27:38;100635.41;;;15.41;57.73
48862;BME280;34681;49.188;-0.374;2023-03-16T10:30:23;100631.69;;;15.57;57.74
48862;BME280;34681;49.188;-0.374;2023-03-16T10:32:50;100629.53;;;15.76;57.30
48862;BME280;34681;49.188;-0.374;2023-03-16T10:35:28;100625.06;;;15.97;56.41
48862;BME280;34681;49.188;-0.374;2023-03-16T10:37:54;100622.31;;;16.12;56.15
48862;BME280;34681;49.188;-0.374;2023-03-16T10:40:20;100624.00;;;16.36;55.82
48862;BME280;34681;49.188;-0.374;2023-03-16T10:42:46;100631.56;;;16.57;54.94
48862;BME280;34681;49.188;-0.374;2023-03-16T10:47:49;100609.81;;;16.92;54.55
48862;BME280;34681;49.188;-0.374;2023-03-16T10:50:15;100605.44;;;16.97;53.91
48862;BME280;34681;49.188;-0.374;2023-03-16T10:52:45;100598.53;;;17.08;53.63
48862;BME280;34681;49.188;-0.374;2023-03-16T10:55:41;100595.31;;;17.55;52.20
48862;BME280;34681;49.188;-0.374;2023-03-16T10:58:08;100594.00;;;17.36;51.84
48862;BME280;34681;49.188;-0.374;2023-03-16T11:00:36;100588.19;;;17.46;51.56
48862;BME280;34681;49.188;-0.374;2023-03-16T11:03:18;100584.06;;;17.78;51.52
48862;BME280;34681;49.188;-0.374;2023-03-16T11:05:47;100588.56;;;17.79;51.43
48862;BME280;34681;49.188;-0.374;2023-03-16T11:08:16;100581.34;;;17.85;51.36
48862;BME280;34681;49.188;-0.374;2023-03-16T11:10:46;100585.25;;;17.90;50.97
48862;BME280;34681;49.188;-0.374;2023-03-16T11:13:13;100577.06;;;18.04;50.76
48862;BME280;34681;49.188;-0.374;2023-03-16T11:16:05;100565.19;;;18.10;50.64
48862;BME280;34681;49.188;-0.374;2023-03-16T11:18:43;100571.75;;;18.30;50.63
48862;BME280;34681;49.188;-0.374;2023-03-16T11:23:40;100557.75;;;18.38;49.60
48862;BME280;34681;49.188;-0.374;2023-03-16T11:26:32;100559.47;;;18.39;49.31
48862;BME280;34681;49.188;-0.374;2023-03-16T11:29:20;100555.91;;;18.45;48.99
48862;BME280;34681;49.188;-0.374;2023-03-16T11:32:13;100552.28;;;18.51;49.07
48862;BME280;34681;49.188;-0.374;2023-03-16T11:34:40;100553.94;;;18.39;49.55
48862;BME280;34681;49.188;-0.374;2023-03-16T11:37:40;100544.13;;;18.43;48.97
48862;BME280;34681;49.188;-0.374;2023-03-16T11:40:19;100536.34;;;18.25;49.15
48862;BME280;34681;49.188;-0.374;2023-03-16T11:45:51;100527.41;;;18.23;50.15
48862;BME280;34681;49.188;-0.374;2023-03-16T11:51:40;100541.94;;;18.32;50.77
48862;BME280;34681;49.188;-0.374;2023-03-16T11:54:24;100536.72;;;18.16;49.88
48862;BME280;34681;49.188;-0.374;2023-03-16T11:57:08;100530.13;;;17.95;50.11
48862;BME280;34681;49.188;-0.374;2023-03-16T12:00:07;100527.28;;;18.10;50.69
48862;BME280;34681;49.188;-0.374;2023-03-16T12:08:11;100511.75;;;18.72;48.97
48862;BME280;34681;49.188;-0.374;2023-03-16T12:11:03;100521.69;;;19.01;48.88
48862;BME280;34681;49.188;-0.374;2023-03-16T12:21:15;100495.34;;;19.31;46.97
48862;BME280;34681;49.188;-0.374;2023-03-16T12:23:53;100489.97;;;19.23;46.35
48862;BME280;34681;49.188;-0.374;2023-03-16T12:26:23;100487.91;;;19.45;46.63
48862;BME280;34681;49.188;-0.374;2023-03-16T12:28:53;100481.31;;;19.59;45.59
48862;BME280;34681;49.188;-0.374;2023-03-16T12:31:35;100476.19;;;19.56;45.63
48862;BME280;34681;49.188;-0.374;2023-03-16T12:34:35;100479.00;;;19.63;45.05
48862;BME280;34681;49.188;-0.374;2023-03-16T12:37:21;100477.94;;;19.71;45.85
48862;BME280;34681;49.188;-0.374;2023-03-16T12:50:33;100459.50;;;19.30;45.20
48862;BME280;34681;49.188;-0.374;2023-03-16T12:52:59;100455.81;;;19.16;45.39
48862;BME280;34681;49.188;-0.374;2023-03-16T12:55:38;100455.78;;;19.03;45.81
48862;BME280;34681;49.188;-0.374;2023-03-16T12:58:06;100447.19;;;18.85;46.27
48862;BME280;34681;49.188;-0.374;2023-03-16T13:00:34;100446.97;;;18.79;45.89
48862;BME280;34681;49.188;-0.374;2023-03-16T13:03:01;100430.00;;;18.61;45.56
48862;BME280;34681;49.188;-0.374;2023-03-16T13:05:31;100428.88;;;18.42;46.48
48862;BME280;34681;49.188;-0.374;2023-03-16T13:08:09;100422.88;;;18.80;46.62
48862;BME280;34681;49.188;-0.374;2023-03-16T13:10:36;100415.16;;;18.69;46.74
48862;BME280;34681;49.188;-0.374;2023-03-16T13:13:09;100419.09;;;18.88;47.19
48862;BME280;34681;49.188;-0.374;2023-03-16T13:15:36;100415.41;;;18.74;47.10
48862;BME280;34681;49.188;-0.374;2023-03-16T13:20:54;100412.50;;;19.02;46.57
48862;BME280;34681;49.188;-0.374;2023-03-16T13:23:27;100410.75;;;18.94;45.93
48862;BME280;34681;49.188;-0.374;2023-03-16T13:28:37;100398.19;;;18.92;46.37
48862;BME280;34681;49.188;-0.374;2023-03-16T13:31:05;100390.50;;;18.94;45.11
48862;BME280;34681;49.188;-0.374;2023-03-16T13:33:32;100391.34;;;18.94;45.52
48862;BME280;34681;49.188;-0.374;2023-03-16T13:36:02;100394.72;;;18.76;45.41
48862;BME280;34681;49.188;-0.374;2023-03-16T13:38:28;100378.31;;;18.75;45.33
48862;BME280;34681;49.188;-0.374;2023-03-16T13:41:03;100385.44;;;19.04;45.38
48862;BME280;34681;49.188;-0.374;2023-03-16T13:43:31;100394.81;;;19.09;46.71
48862;BME280;34681;49.188;-0.374;2023-03-16T13:45:58;100383.53;;;19.24;46.46
48862;BME280;34681;49.188;-0.374;2023-03-16T13:48:24;100384.19;;;19.40;45.81
48862;BME280;34681;49.188;-0.374;2023-03-16T13:50:51;100380.13;;;19.49;46.60
48862;BME280;34681;49.188;-0.374;2023-03-16T13:53:24;100376.50;;;19.48;46.17